Time;durP1;ratioP1;P1;durP2;ratioP2;P2;SDS_P1;SDS_P2;PMS_P1;PMS_P2;Temp;Humidity;BMP_temperature;BMP_pressure;BME280_temperature;BME280_humidity;BME280_pressure;Samples;Min_cycle;Max_cycle;Signal;HPM_P1;HPM_P2
2023/01/08 00:03:57;;;;;;;6.80;3.95;;;-1.10;99.90;;;;;;10436022;22;20079;-79
2023/01/08 00:07:58;;;;;;;7.35;4.13;;;-1.20;99.90;;;;;;10434113;22;20019;-79
2023/01/08 00:11:58;;;;;;;7.28;3.85;;;-1.30;99.90;;;;;;10434102;22;20495;-79
2023/01/08 00:16:07;;;;;;;7.50;4.20;;;-1.30;99.90;;;;;;10434178;22;20061;-79
2023/01/08 00:20:08;;;;;;;6.15;3.67;;;-1.30;99.90;;;;;;10436503;22;19999;-79
2023/01/08 00:24:09;;;;;;;6.68;3.95;;;-1.20;99.90;;;;;;10434178;22;20361;-79
2023/01/08 00:28:09;;;;;;;6.00;3.85;;;-1.10;99.90;;;;;;10436350;22;20007;-79
2023/01/08 00:32:10;;;;;;;8.50;3.50;;;-1.10;99.90;;;;;;10436143;22;20065;-79
2023/01/08 00:36:13;;;;;;;5.32;3.63;;;-0.70;99.90;;;;;;10434272;22;19999;-79
2023/01/08 00:40:14;;;;;;;7.43;3.55;;;-0.90;99.90;;;;;;10434792;22;20003;-79
2023/01/08 00:44:14;;;;;;;6.57;3.22;;;-1.10;99.90;;;;;;10434504;22;20397;-79
2023/01/08 00:48:15;;;;;;;4.80;3.03;;;-1.30;99.90;;;;;;10433918;22;20006;-79
2023/01/08 00:52:15;;;;;;;6.32;3.63;;;-1.30;99.90;;;;;;10434208;22;20370;-79
2023/01/08 00:56:16;;;;;;;4.75;2.90;;;-1.20;99.90;;;;;;10435659;22;19995;-78
2023/01/08 01:00:17;;;;;;;5.00;2.72;;;-1.20;99.90;;;;;;10434591;22;19995;-79
2023/01/08 01:04:17;;;;;;;5.72;3.38;;;-1.20;99.90;;;;;;10433907;22;19999;-79
2023/01/08 01:08:18;;;;;;;5.75;3.60;;;-1.30;99.90;;;;;;10434296;22;20010;-80
2023/01/08 01:12:18;;;;;;;7.82;3.70;;;-1.30;99.90;;;;;;10433969;22;20007;-80
2023/01/08 01:16:19;;;;;;;9.65;4.22;;;-0.90;99.90;;;;;;10433976;22;20007;-80
2023/01/08 01:20:19;;;;;;;7.78;3.65;;;-0.70;99.90;;;;;;10434381;22;20400;-80
2023/01/08 01:24:22;;;;;;;10.20;3.47;;;-0.80;99.90;;;;;;10434279;22;20037;-81
2023/01/08 01:28:23;;;;;;;7.97;3.83;;;-0.90;99.90;;;;;;10434463;22;20006;-79
2023/01/08 01:32:23;;;;;;;9.50;4.30;;;-0.90;99.90;;;;;;10433849;22;20019;-80
2023/01/08 01:36:25;;;;;;;9.18;4.22;;;-1.00;99.90;;;;;;10435099;22;20007;-79
2023/01/08 01:40:25;;;;;;;8.02;3.47;;;-1.20;99.90;;;;;;10434150;22;20003;-80
2023/01/08 01:44:35;;;;;;;8.00;4.20;;;-1.20;99.90;;;;;;10434223;22;20407;-79
2023/01/08 01:48:35;;;;;;;7.57;3.80;;;-1.20;99.90;;;;;;10433981;22;20015;-80
2023/01/08 01:52:43;;;;;;;5.30;3.00;;;-1.10;99.90;;;;;;10435374;22;20429;-80
2023/01/08 01:56:45;;;;;;;3.67;2.33;;;-1.10;99.90;;;;;;10434067;22;20073;-80
2023/01/08 02:00:46;;;;;;;3.95;2.30;;;-0.90;99.90;;;;;;10435492;22;20050;-79
2023/01/08 02:04:47;;;;;;;3.50;2.28;;;-0.60;99.90;;;;;;10433497;22;20462;-79
2023/01/08 02:09:11;;;;;;;4.63;2.28;;;-0.50;99.90;;;;;;10433302;22;20065;-80
2023/01/08 02:13:21;;;;;;;4.10;2.47;;;-0.40;99.90;;;;;;10433152;22;20603;-80
2023/01/08 02:17:58;;;;;;;4.60;2.80;;;-0.20;99.90;;;;;;10434990;22;20074;-81
2023/01/08 02:22:24;;;;;;;3.50;2.30;;;-0.20;99.90;;;;;;10369872;22;20012;-79
2023/01/08 02:26:28;;;;;;;5.53;2.53;;;0.00;99.90;;;;;;10436408;22;20007;-80
2023/01/08 02:30:29;;;;;;;5.07;2.50;;;0.20;99.90;;;;;;10438272;22;20078;-79
2023/01/08 02:34:31;;;;;;;4.55;2.78;;;0.00;99.90;;;;;;10436617;22;20007;-81
2023/01/08 02:38:32;;;;;;;4.47;2.30;;;-0.30;99.90;;;;;;10436389;22;20378;-80
2023/01/08 02:42:46;;;;;;;5.07;2.30;;;-0.30;99.90;;;;;;10438473;22;20003;-80
2023/01/08 02:46:51;;;;;;;4.85;2.80;;;-0.40;99.90;;;;;;10436610;22;20017;-80
2023/01/08 02:50:57;;;;;;;3.20;2.33;;;-0.30;99.90;;;;;;10436916;22;20086;-80
2023/01/08 02:55:01;;;;;;;4.20;2.85;;;-0.40;99.90;;;;;;10436461;22;20083;-80
2023/01/08 02:59:06;;;;;;;5.85;2.75;;;-0.20;99.90;;;;;;10436905;22;20338;-80
2023/01/08 03:03:21;;;;;;;4.68;2.97;;;0.00;99.90;;;;;;10436682;22;20456;-81
2023/01/08 03:07:21;;;;;;;4.18;2.58;;;-0.30;99.90;;;;;;10436392;22;20003;-81
2023/01/08 03:11:24;;;;;;;5.20;2.78;;;-0.30;99.90;;;;;;10436091;22;20090;-80
2023/01/08 03:15:31;;;;;;;5.30;2.67;;;-0.20;99.90;;;;;;10435903;22;20000;-80
2023/01/08 03:19:41;;;;;;;4.97;2.65;;;-0.30;99.90;;;;;;10436702;22;20006;-80
2023/01/08 03:23:43;;;;;;;4.32;2.35;;;-0.40;99.90;;;;;;10436276;22;20488;-80
2023/01/08 03:27:48;;;;;;;5.07;2.75;;;-0.50;99.90;;;;;;10436163;22;20014;-80
2023/01/08 03:31:54;;;;;;;7.20;3.00;;;-0.30;99.90;;;;;;10436331;22;20019;-80
2023/01/08 03:35:58;;;;;;;5.22;3.00;;;0.10;99.90;;;;;;10435316;22;20487;-80
2023/01/08 03:40:08;;;;;;;4.45;2.40;;;0.00;99.90;;;;;;10436308;22;20065;-80
2023/01/08 03:44:09;;;;;;;4.72;2.72;;;0.00;99.90;;;;;;10436388;22;20018;-80
2023/01/08 03:48:09;;;;;;;5.03;2.80;;;0.00;99.90;;;;;;10436227;22;20007;-81
2023/01/08 03:52:21;;;;;;;6.32;2.90;;;-0.10;99.90;;;;;;10435725;22;20065;-81
2023/01/08 03:56:21;;;;;;;5.15;2.70;;;-0.20;99.90;;;;;;10437438;22;19995;-80
2023/01/08 04:00:22;;;;;;;6.05;3.15;;;-0.10;99.90;;;;;;10435878;22;20003;-80
2023/01/08 04:04:22;;;;;;;5.18;2.72;;;0.10;99.90;;;;;;10435019;22;20050;-80
2023/01/08 04:08:23;;;;;;;5.93;2.92;;;-0.10;99.90;;;;;;10435645;22;20424;-81
2023/01/08 04:12:24;;;;;;;3.70;2.45;;;-0.10;99.90;;;;;;10435446;22;20065;-80
2023/01/08 04:16:24;;;;;;;4.40;2.60;;;-0.10;99.90;;;;;;10435607;22;19999;-80
2023/01/08 04:20:25;;;;;;;4.38;2.50;;;0.10;99.90;;;;;;10436982;22;20034;-82
2023/01/08 04:24:26;;;;;;;4.53;2.70;;;0.00;99.90;;;;;;10436810;22;20007;-81
2023/01/08 04:28:26;;;;;;;3.72;2.25;;;0.10;99.90;;;;;;10435392;22;20420;-80
2023/01/08 04:32:27;;;;;;;5.25;2.92;;;0.40;99.90;;;;;;10435070;22;20057;-80
2023/01/08 04:36:27;;;;;;;4.60;2.38;;;0.60;99.90;;;;;;10436302;22;20460;-80
2023/01/08 04:40:28;;;;;;;3.65;2.28;;;0.70;99.90;;;;;;10436405;22;20002;-80
2023/01/08 04:44:28;;;;;;;4.43;2.45;;;0.80;99.90;;;;;;10436077;22;20429;-81
2023/01/08 04:48:30;;;;;;;4.32;2.40;;;0.70;99.90;;;;;;10434565;22;20003;-80
2023/01/08 04:52:30;;;;;;;5.60;2.75;;;0.60;99.90;;;;;;10436045;22;20398;-80
2023/01/08 04:56:31;;;;;;;3.35;2.03;;;0.50;99.90;;;;;;10434235;22;20040;-80
2023/01/08 05:00:31;;;;;;;3.45;2.13;;;0.40;99.90;;;;;;10434243;22;20513;-81
2023/01/08 05:04:32;;;;;;;3.65;2.30;;;0.40;99.90;;;;;;10433803;22;20011;-80
2023/01/08 05:08:32;;;;;;;3.47;2.42;;;0.40;99.90;;;;;;10435284;22;20000;-80
2023/01/08 05:12:33;;;;;;;5.22;2.33;;;0.50;99.90;;;;;;10433818;22;20053;-80
2023/01/08 05:16:33;;;;;;;3.25;1.90;;;0.40;99.90;;;;;;10433418;22;20088;-80
2023/01/08 05:20:34;;;;;;;3.17;2.08;;;0.40;99.90;;;;;;10433238;22;20029;-80
2023/01/08 05:24:35;;;;;;;3.28;2.25;;;0.50;99.90;;;;;;10432280;22;20015;-80
2023/01/08 05:28:35;;;;;;;4.95;2.80;;;0.90;99.90;;;;;;10433396;22;20014;-80
2023/01/08 05:32:36;;;;;;;3.92;2.33;;;0.90;99.90;;;;;;10432801;22;20071;-79
2023/01/08 05:36:36;;;;;;;3.22;2.10;;;0.80;99.90;;;;;;10431077;22;20006;-80
2023/01/08 05:40:37;;;;;;;3.38;2.10;;;0.70;99.90;;;;;;10433205;22;20060;-79
2023/01/08 05:44:37;;;;;;;4.25;1.90;;;0.60;99.90;;;;;;10430304;22;20388;-79
2023/01/08 05:48:38;;;;;;;3.75;2.40;;;0.60;99.90;;;;;;10431770;22;20014;-79
2023/01/08 05:52:38;;;;;;;5.53;2.25;;;0.70;99.90;;;;;;10431789;22;20471;-79
2023/01/08 05:56:39;;;;;;;2.67;2.08;;;0.80;99.90;;;;;;10431413;22;20007;-81
2023/01/08 06:00:40;;;;;;;2.35;1.77;;;0.90;99.90;;;;;;10431571;22;20010;-79
2023/01/08 06:04:40;;;;;;;3.05;2.33;;;0.80;99.90;;;;;;10432693;22;20010;-79
2023/01/08 06:08:41;;;;;;;3.90;2.25;;;0.80;99.90;;;;;;10431561;22;20015;-79
2023/01/08 06:12:42;;;;;;;4.53;2.63;;;0.80;99.90;;;;;;10432725;22;20057;-78
2023/01/08 06:16:42;;;;;;;6.28;2.03;;;0.90;99.90;;;;;;10430779;22;19999;-78
2023/01/08 06:20:43;;;;;;;3.33;1.98;;;0.90;99.90;;;;;;10431887;22;20014;-79
2023/01/08 06:24:44;;;;;;;4.15;2.50;;;0.90;99.90;;;;;;10431222;22;20018;-79
2023/01/08 06:28:44;;;;;;;4.68;2.90;;;1.30;99.90;;;;;;10433009;22;20004;-78
2023/01/08 06:32:45;;;;;;;6.22;3.75;;;1.30;99.90;;;;;;10430780;22;20319;-79
2023/01/08 06:36:45;;;;;;;6.03;3.72;;;1.10;99.90;;;;;;10432766;22;20015;-79
2023/01/08 06:40:46;;;;;;;6.07;3.20;;;1.10;99.90;;;;;;10431588;22;20034;-79
2023/01/08 06:44:47;;;;;;;5.85;3.78;;;1.10;99.90;;;;;;10431186;22;20015;-79
2023/01/08 06:48:47;;;;;;;6.07;3.50;;;1.30;99.90;;;;;;10431243;22;20012;-79
2023/01/08 06:52:53;;;;;;;5.50;3.20;;;1.50;99.90;;;;;;10429543;22;20007;-82
2023/01/08 06:56:53;;;;;;;5.00;2.80;;;1.30;99.90;;;;;;10431277;22;20078;-80
2023/01/08 07:00:54;;;;;;;4.03;2.35;;;1.10;99.90;;;;;;10432771;22;20003;-79
2023/01/08 07:04:55;;;;;;;4.05;2.55;;;1.10;99.90;;;;;;10430317;22;20400;-79
2023/01/08 07:08:55;;;;;;;4.38;2.42;;;1.20;99.90;;;;;;10430950;22;20038;-79
2023/01/08 07:12:57;;;;;;;3.92;2.40;;;1.30;99.90;;;;;;10433705;22;20015;-79
2023/01/08 07:16:57;;;;;;;4.28;2.55;;;1.30;99.90;;;;;;10432930;22;20029;-80
2023/01/08 07:20:58;;;;;;;7.35;2.50;;;1.30;99.90;;;;;;10437075;22;20000;-87
2023/01/08 07:24:59;;;;;;;6.28;2.60;;;1.30;99.90;;;;;;10438039;22;20007;-87
2023/01/08 07:28:59;;;;;;;3.40;2.25;;;1.40;99.90;;;;;;10437259;22;20008;-87
2023/01/08 07:33:00;;;;;;;5.40;2.85;;;1.40;99.90;;;;;;10436693;22;20015;-87
2023/01/08 07:37:02;;;;;;;4.75;2.72;;;1.50;99.90;;;;;;10436100;22;20003;-82
2023/01/08 07:41:03;;;;;;;4.40;2.83;;;1.70;99.90;;;;;;10436325;22;19999;-82
2023/01/08 07:45:04;;;;;;;5.18;2.75;;;1.60;99.90;;;;;;10437943;22;20317;-83
2023/01/08 07:49:05;;;;;;;4.40;2.50;;;1.70;99.90;;;;;;10437124;22;20007;-83
2023/01/08 07:53:05;;;;;;;4.90;2.97;;;1.80;99.90;;;;;;10435969;22;20015;-82
2023/01/08 07:57:06;;;;;;;4.22;2.70;;;2.00;99.90;;;;;;10433513;22;20035;-84
2023/01/08 08:01:09;;;;;;;4.90;2.75;;;2.00;99.90;;;;;;10432183;22;20338;-85
2023/01/08 08:05:10;;;;;;;5.15;3.20;;;2.10;99.90;;;;;;10434826;22;20003;-84
2023/01/08 08:09:10;;;;;;;5.88;3.53;;;2.10;99.90;;;;;;10433740;22;20019;-82
2023/01/08 08:13:13;;;;;;;5.72;3.35;;;2.10;99.90;;;;;;10405153;22;20019;-82
2023/01/08 08:17:17;;;;;;;7.88;4.18;;;2.20;99.90;;;;;;10392072;22;20011;-85
2023/01/08 08:21:17;;;;;;;5.45;3.40;;;2.40;99.90;;;;;;10380315;22;20452;-86
2023/01/08 08:25:21;;;;;;;7.35;3.90;;;2.60;99.90;;;;;;10338506;23;20039;-84
2023/01/08 08:29:22;;;;;;;5.85;3.58;;;2.70;99.90;;;;;;10336726;23;20087;-86
2023/01/08 08:33:22;;;;;;;4.32;2.58;;;3.00;99.90;;;;;;10335612;22;20011;-85
2023/01/08 08:37:23;;;;;;;4.47;2.90;;;3.60;99.90;;;;;;10336967;23;20004;-87
2023/01/08 08:41:32;;;;;;;4.10;2.80;;;3.90;99.90;;;;;;10334574;22;20004;-90
2023/01/08 08:45:33;;;;;;;5.65;3.35;;;3.70;99.90;;;;;;10334032;23;20007;-89
2023/01/08 08:49:35;;;;;;;3.72;2.20;;;4.30;99.90;;;;;;10334060;23;20031;-89
2023/01/08 08:53:35;;;;;;;3.50;2.15;;;4.70;99.90;;;;;;10339052;22;20008;-89
2023/01/08 08:57:45;;;;;;;3.03;1.70;;;5.10;99.90;;;;;;10338987;23;20405;-90
2023/01/08 09:01:45;;;;;;;4.00;2.10;;;5.80;99.90;;;;;;10338392;22;20005;-87
2023/01/08 09:05:46;;;;;;;5.95;2.70;;;6.00;99.90;;;;;;10336977;23;20327;-90
2023/01/08 09:09:46;;;;;;;4.97;2.97;;;6.10;99.90;;;;;;10337874;23;20008;-89
2023/01/08 09:13:47;;;;;;;4.10;2.75;;;6.30;99.90;;;;;;10337781;22;20051;-86
2023/01/08 09:17:57;;;;;;;3.53;2.33;;;6.30;99.90;;;;;;10337516;23;20019;-86
2023/01/08 09:21:58;;;;;;;3.33;2.47;;;6.30;99.90;;;;;;10339822;22;20000;-89
2023/01/08 09:26:03;;;;;;;5.03;2.22;;;6.40;99.90;;;;;;10337800;23;20007;-86
2023/01/08 09:30:04;;;;;;;3.83;1.98;;;6.90;99.90;;;;;;10345386;23;20004;-87
2023/01/08 09:34:05;;;;;;;3.60;2.13;;;6.70;99.90;;;;;;10333967;22;20008;-86
2023/01/08 09:38:05;;;;;;;2.33;1.90;;;6.50;99.90;;;;;;10333458;23;20338;-87
2023/01/08 09:42:07;;;;;;;3.60;2.50;;;6.40;99.90;;;;;;10335707;22;20054;-86
2023/01/08 09:46:08;;;;;;;3.85;2.35;;;6.30;99.90;;;;;;10338103;23;20014;-86
2023/01/08 09:50:13;;;;;;;4.20;2.25;;;6.70;99.90;;;;;;10337604;23;20004;-87
2023/01/08 09:54:16;;;;;;;3.63;2.50;;;6.80;99.90;;;;;;10335631;22;20091;-89
2023/01/08 09:58:28;;;;;;;4.00;2.03;;;7.10;99.90;;;;;;10335334;23;20357;-87
2023/01/08 10:02:33;;;;;;;2.70;2.15;;;7.30;99.90;;;;;;10336458;22;20044;-86
2023/01/08 10:06:34;;;;;;;4.25;2.20;;;7.50;99.90;;;;;;10337300;22;20028;-87
2023/01/08 10:10:36;;;;;;;4.95;2.17;;;7.80;99.90;;;;;;10336867;23;20346;-87
2023/01/08 10:14:48;;;;;;;4.22;2.92;;;7.80;99.90;;;;;;10335961;22;20064;-87
2023/01/08 10:18:49;;;;;;;3.85;2.60;;;8.00;99.90;;;;;;10373399;22;19996;-89
2023/01/08 10:22:53;;;;;;;3.85;2.30;;;8.20;99.90;;;;;;10336303;22;20012;-86
2023/01/08 10:27:06;;;;;;;3.67;2.10;;;8.10;99.90;;;;;;10332911;23;20009;-87
2023/01/08 10:31:10;;;;;;;4.03;1.90;;;7.90;99.90;;;;;;10335104;22;20083;-86
2023/01/08 10:35:16;;;;;;;2.80;2.20;;;8.10;99.90;;;;;;10335592;22;20008;-88
2023/01/08 10:39:29;;;;;;;3.25;2.00;;;8.10;99.90;;;;;;10333626;23;20012;-87
2023/01/08 10:43:47;;;;;;;4.22;2.30;;;8.10;99.90;;;;;;10332742;22;20008;-88
2023/01/08 10:47:51;;;;;;;3.20;1.98;;;8.10;99.90;;;;;;10337305;23;20098;-88
2023/01/08 10:51:52;;;;;;;2.22;1.55;;;8.20;99.90;;;;;;10336503;22;20008;-87
2023/01/08 10:56:03;;;;;;;3.53;1.88;;;8.00;99.90;;;;;;10335985;23;20002;-87
2023/01/08 11:00:31;;;;;;;2.13;1.52;;;7.90;99.90;;;;;;10336132;22;20419;-87
2023/01/08 11:04:37;;;;;;;3.50;2.10;;;7.80;99.90;;;;;;10334037;22;20004;-86
2023/01/08 11:08:38;;;;;;;3.72;1.85;;;7.80;99.90;;;;;;10334091;23;20066;-87
2023/01/08 11:12:39;;;;;;;4.07;2.10;;;8.00;99.90;;;;;;10333187;22;20012;-87
2023/01/08 11:16:41;;;;;;;4.30;2.10;;;8.00;99.90;;;;;;10333606;23;20058;-88
2023/01/08 11:20:42;;;;;;;4.93;2.67;;;8.00;99.90;;;;;;10333813;22;20008;-88
2023/01/08 11:24:45;;;;;;;10.32;4.63;;;8.10;99.90;;;;;;10333527;23;20024;-88
2023/01/08 11:29:09;;;;;;;12.50;7.38;;;8.20;99.90;;;;;;10333537;23;20040;-88
2023/01/08 11:33:34;;;;;;;25.85;11.13;;;8.10;99.90;;;;;;10334149;22;20008;-88
2023/01/08 11:37:58;;;;;;;2.58;1.95;;;8.20;99.90;;;;;;10335958;23;20011;-88
2023/01/08 11:42:25;;;;;;;5.03;3.08;;;8.30;99.90;;;;;;10336326;22;20012;-88
2023/01/08 11:46:50;;;;;;;6.10;3.70;;;8.30;99.90;;;;;;10336634;23;20011;-88
2023/01/08 11:51:15;;;;;;;10.25;4.50;;;8.10;99.90;;;;;;10339675;22;20409;-87
2023/01/08 11:55:35;;;;;;;3.88;2.55;;;8.00;99.90;;;;;;10342394;23;20079;-87
2023/01/08 12:00:03;;;;;;;5.00;3.20;;;8.10;99.90;;;;;;10345572;23;20004;-89
2023/01/08 12:04:42;;;;;;;11.68;5.82;;;8.00;99.90;;;;;;10342046;22;20004;-89
2023/01/08 12:08:51;;;;;;;3.83;2.15;;;8.00;99.90;;;;;;10266820;23;20008;-88
2023/01/08 12:13:33;;;;;;;4.47;2.57;;;8.00;99.90;;;;;;10340792;22;20769;-87
2023/01/08 12:17:59;;;;;;;;;;;7.90;99.90;;;;;;10340370;23;20035;-87
2023/01/08 12:22:02;;;;;;;15.38;8.55;;;7.80;99.90;;;;;;10340136;22;19899;-88
2023/01/08 12:26:27;;;;;;;4.03;2.10;;;7.70;99.90;;;;;;10339301;23;20015;-87
2023/01/08 12:30:41;;;;;;;21.20;9.57;;;7.70;99.90;;;;;;10339152;23;20004;-87
2023/01/08 12:34:54;;;;;;;15.82;7.30;;;7.80;99.90;;;;;;10333879;23;20092;-88
2023/01/08 12:39:02;;;;;;;10.07;5.80;;;7.70;99.90;;;;;;10333154;23;20011;-87
2023/01/08 12:43:10;;;;;;;5.53;2.67;;;7.80;99.90;;;;;;10335382;22;20027;-87
2023/01/08 12:47:24;;;;;;;3.60;2.13;;;8.00;99.90;;;;;;10334787;23;20007;-87
2023/01/08 12:51:37;;;;;;;5.03;3.60;;;8.00;99.90;;;;;;10335123;22;20012;-86
2023/01/08 12:56:20;;;;;;;4.10;2.38;;;8.10;99.90;;;;;;10334185;23;20447;-87
2023/01/08 13:00:36;;;;;;;27.35;12.07;;;8.20;99.90;;;;;;10334918;23;20032;-90
2023/01/08 13:04:46;;;;;;;9.98;6.28;;;8.40;99.90;;;;;;10333215;22;20390;-87
2023/01/08 13:08:50;;;;;;;8.35;5.20;;;8.40;99.90;;;;;;10332417;23;20012;-87
2023/01/08 13:12:52;;;;;;;8.15;4.72;;;8.20;99.90;;;;;;10332739;22;20075;-87
2023/01/08 13:17:03;;;;;;;6.30;3.88;;;8.20;99.90;;;;;;10334141;23;20028;-87
2023/01/08 13:21:05;;;;;;;11.80;5.78;;;8.10;99.90;;;;;;10334174;22;20015;-87
2023/01/08 13:25:32;;;;;;;7.50;3.50;;;7.90;99.90;;;;;;10334111;23;20074;-87
2023/01/08 13:29:38;;;;;;;5.50;3.28;;;7.80;99.90;;;;;;10333840;23;20008;-88
2023/01/08 13:33:40;;;;;;;7.60;4.13;;;7.90;99.90;;;;;;10333182;22;20020;-86
2023/01/08 13:37:42;;;;;;;5.10;2.42;;;7.70;99.90;;;;;;10333205;23;20086;-85
2023/01/08 13:42:03;;;;;;;3.33;1.95;;;7.80;99.90;;;;;;10333170;22;20446;-87
2023/01/08 13:46:07;;;;;;;3.05;2.10;;;7.60;99.90;;;;;;10307113;23;20016;-88
2023/01/08 13:50:20;;;;;;;3.33;1.98;;;7.40;99.90;;;;;;10333694;23;20031;-86
2023/01/08 13:54:35;;;;;;;3.78;2.55;;;7.50;99.90;;;;;;10333430;22;20019;-86
2023/01/08 13:58:43;;;;;;;5.20;4.07;;;7.60;99.90;;;;;;10332810;23;20001;-87
2023/01/08 14:02:49;;;;;;;2.90;1.92;;;7.60;99.90;;;;;;10332967;22;20031;-87
2023/01/08 14:06:49;;;;;;;4.28;2.50;;;7.80;99.90;;;;;;10333807;23;20347;-87
2023/01/08 14:10:51;;;;;;;4.55;2.53;;;7.80;99.90;;;;;;10332567;22;20009;-86
2023/01/08 14:14:56;;;;;;;5.72;2.90;;;7.90;99.90;;;;;;10333189;23;20016;-86
2023/01/08 14:19:00;;;;;;;3.50;2.15;;;7.80;99.90;;;;;;10334241;23;20087;-86
2023/01/08 14:23:01;;;;;;;4.78;2.92;;;7.60;99.90;;;;;;10340463;22;20012;-85
2023/01/08 14:27:02;;;;;;;7.68;4.47;;;7.50;99.90;;;;;;10339294;23;20012;-85
2023/01/08 14:31:02;;;;;;;8.73;5.20;;;7.50;99.90;;;;;;10337609;22;20446;-87
2023/01/08 14:35:08;;;;;;;22.70;7.95;;;7.70;99.90;;;;;;10336489;23;20004;-87
2023/01/08 14:39:21;;;;;;;14.65;7.32;;;7.70;99.90;;;;;;10336779;23;20031;-86
2023/01/08 14:43:21;;;;;;;21.55;11.07;;;8.10;99.90;;;;;;10337052;22;20008;-86
2023/01/08 14:47:29;;;;;;;7.60;4.97;;;7.60;99.90;;;;;;10337488;23;20633;-87
2023/01/08 14:51:31;;;;;;;8.30;4.32;;;7.60;99.90;;;;;;10338780;22;20036;-86
2023/01/08 14:55:34;;;;;;;8.27;3.97;;;7.60;99.90;;;;;;10335648;23;20012;-87
2023/01/08 14:59:36;;;;;;;7.90;4.35;;;7.50;99.90;;;;;;10336448;23;20090;-87
2023/01/08 15:03:41;;;;;;;13.65;6.47;;;7.50;99.90;;;;;;10335808;22;20430;-87
2023/01/08 15:07:53;;;;;;;42.30;15.23;;;7.50;99.90;;;;;;10336023;23;20014;-87
2023/01/08 15:11:57;;;;;;;8.23;4.63;;;7.40;99.90;;;;;;10334930;22;20450;-87
2023/01/08 15:16:05;;;;;;;3.50;2.58;;;7.20;99.90;;;;;;10335532;23;20004;-88
2023/01/08 15:20:17;;;;;;;3.40;2.03;;;7.10;99.90;;;;;;10335820;23;20350;-87
2023/01/08 15:24:38;;;;;;;3.05;2.30;;;6.90;99.90;;;;;;10336494;22;20008;-86
2023/01/08 15:28:45;;;;;;;4.57;3.40;;;6.90;99.90;;;;;;10335957;23;20012;-86
2023/01/08 15:32:46;;;;;;;4.30;3.10;;;6.80;99.90;;;;;;10337423;22;20091;-87
2023/01/08 15:36:46;;;;;;;2.95;1.80;;;6.70;99.90;;;;;;10336152;23;20426;-87
2023/01/08 15:40:47;;;;;;;2.53;2.00;;;6.30;99.90;;;;;;10336369;22;20008;-87
2023/01/08 15:44:48;;;;;;;3.22;1.98;;;6.10;99.90;;;;;;10336276;23;20502;-88
2023/01/08 15:48:48;;;;;;;2.50;1.85;;;6.00;99.90;;;;;;10336054;23;20004;-87
2023/01/08 15:52:49;;;;;;;3.53;2.30;;;5.90;99.90;;;;;;10336462;22;20004;-86
2023/01/08 15:56:49;;;;;;;3.67;2.05;;;6.00;99.90;;;;;;10367130;22;20024;-88
2023/01/08 16:00:50;;;;;;;6.75;2.45;;;6.00;99.90;;;;;;10349798;22;20026;-87
2023/01/08 16:04:52;;;;;;;3.72;2.70;;;5.80;99.90;;;;;;10335027;23;20008;-87
2023/01/08 16:08:56;;;;;;;4.72;3.20;;;5.50;99.90;;;;;;10334547;23;20058;-87
2023/01/08 16:12:58;;;;;;;6.82;4.15;;;5.30;99.90;;;;;;10336493;22;20012;-87
2023/01/08 16:17:00;;;;;;;8.15;4.78;;;5.40;99.90;;;;;;10336381;23;20004;-88
2023/01/08 16:21:00;;;;;;;11.75;5.18;;;5.30;99.90;;;;;;10337853;22;20066;-85
2023/01/08 16:25:01;;;;;;;13.30;6.63;;;5.40;99.90;;;;;;10339365;23;20028;-85
2023/01/08 16:29:02;;;;;;;10.20;5.95;;;5.30;99.90;;;;;;10337475;23;20351;-84
2023/01/08 16:33:02;;;;;;;9.20;4.30;;;5.30;99.90;;;;;;10339606;22;20019;-82
2023/01/08 16:37:03;;;;;;;7.03;3.05;;;5.30;99.90;;;;;;10341732;23;20000;-84
2023/01/08 16:41:04;;;;;;;5.82;3.15;;;5.30;99.90;;;;;;10341352;22;20009;-81
2023/01/08 16:45:06;;;;;;;6.97;3.05;;;5.40;99.90;;;;;;10342932;23;20495;-82
2023/01/08 16:49:07;;;;;;;6.07;3.40;;;5.20;99.90;;;;;;10348084;22;20011;-80
2023/01/08 16:53:08;;;;;;;6.72;4.85;;;5.10;99.90;;;;;;10350928;22;20497;-81
2023/01/08 16:57:08;;;;;;;5.55;3.15;;;5.60;99.90;;;;;;10349990;23;20442;-80
2023/01/08 17:01:11;;;;;;;4.75;2.63;;;5.60;99.90;;;;;;10349651;22;20006;-81
2023/01/08 17:05:11;;;;;;;4.13;2.42;;;5.50;99.90;;;;;;10347842;23;20012;-81
2023/01/08 17:09:12;;;;;;;4.68;2.42;;;5.40;99.90;;;;;;10347820;23;20423;-81
2023/01/08 17:13:12;;;;;;;5.05;2.45;;;5.20;99.90;;;;;;10351422;22;20473;-81
2023/01/08 17:17:13;;;;;;;6.03;3.22;;;5.10;99.90;;;;;;10343535;23;20008;-83
2023/01/08 17:21:14;;;;;;;4.00;3.20;;;5.00;99.90;;;;;;10337028;22;20000;-82
2023/01/08 17:25:15;;;;;;;19.92;8.20;;;5.00;99.90;;;;;;10334566;23;20569;-83
2023/01/08 17:29:15;;;;;;;14.57;8.45;;;5.40;99.90;;;;;;10335660;23;20215;-82
2023/01/08 17:33:16;;;;;;;8.40;5.55;;;5.20;99.90;;;;;;10334825;22;20004;-82
2023/01/08 17:37:17;;;;;;;6.65;4.40;;;5.60;99.90;;;;;;10334998;23;20343;-83
2023/01/08 17:45:38;;;;;;;7.97;4.57;;;5.40;99.90;;;;;;10338285;23;20105;-81
2023/01/08 17:49:38;;;;;;;11.75;7.25;;;5.70;99.90;;;;;;10337173;23;20028;-81
2023/01/08 17:53:39;;;;;;;14.50;9.75;;;5.60;99.90;;;;;;10335944;22;20016;-81
2023/01/08 17:57:39;;;;;;;10.52;7.05;;;5.80;99.90;;;;;;10336899;23;20004;-81
2023/01/08 18:01:40;;;;;;;11.95;7.07;;;5.50;99.90;;;;;;10335059;22;20019;-81
2023/01/08 18:05:41;;;;;;;11.40;6.60;;;5.40;99.90;;;;;;10337650;23;20008;-81
2023/01/08 18:09:41;;;;;;;10.70;6.30;;;5.20;99.90;;;;;;10340404;23;20054;-81
2023/01/08 18:13:42;;;;;;;13.00;7.72;;;5.00;99.90;;;;;;10331835;22;20061;-80
2023/01/08 18:17:43;;;;;;;13.52;8.65;;;5.20;99.90;;;;;;10332677;23;20039;-81
2023/01/08 18:21:43;;;;;;;9.63;6.13;;;5.20;99.90;;;;;;10332600;22;20032;-81
2023/01/08 18:25:44;;;;;;;10.63;5.93;;;5.10;99.90;;;;;;10332013;23;20214;-80
2023/01/08 18:29:44;;;;;;;7.95;5.40;;;5.00;99.90;;;;;;10332500;23;20012;-81
2023/01/08 18:33:48;;;;;;;9.85;6.22;;;5.00;99.90;;;;;;10333608;22;20055;-79
2023/01/08 18:37:49;;;;;;;9.13;5.20;;;5.20;99.90;;;;;;10332272;23;20569;-81
2023/01/08 18:46:08;;;;;;;7.32;4.40;;;5.20;99.90;;;;;;10333796;23;20015;-80
2023/01/08 18:50:09;;;;;;;8.32;4.68;;;5.60;99.90;;;;;;10332226;23;20000;-80
2023/01/08 18:54:11;;;;;;;6.78;4.53;;;5.70;99.90;;;;;;10331459;22;20008;-80
2023/01/08 18:58:12;;;;;;;7.53;4.80;;;5.40;99.90;;;;;;10331594;23;20087;-80
2023/01/08 19:02:20;;;;;;;6.20;4.22;;;5.60;99.90;;;;;;10331556;22;20019;-80
2023/01/08 19:06:21;;;;;;;7.05;4.38;;;5.30;99.90;;;;;;10331758;23;20011;-80
2023/01/08 19:10:21;;;;;;;6.18;3.53;;;5.40;99.90;;;;;;10334404;23;20011;-79
2023/01/08 19:14:22;;;;;;;9.20;5.15;;;5.20;99.90;;;;;;10333846;22;20058;-80
2023/01/08 19:18:22;;;;;;;11.30;6.25;;;5.00;99.90;;;;;;10334272;23;20054;-80
2023/01/08 19:22:25;;;;;;;20.25;10.98;;;5.30;99.90;;;;;;10333702;22;20014;-80
2023/01/08 19:26:26;;;;;;;15.23;8.65;;;5.30;99.90;;;;;;10334170;23;20553;-81
2023/01/08 19:30:29;;;;;;;13.68;8.82;;;5.20;99.90;;;;;;10334597;23;20019;-81
2023/01/08 19:34:29;;;;;;;10.63;6.35;;;5.00;99.90;;;;;;10334807;22;20007;-81
2023/01/08 19:38:30;;;;;;;18.02;9.02;;;4.90;99.90;;;;;;10334395;23;20435;-80
2023/01/08 19:46:50;;;;;;;7.40;4.88;;;4.80;99.90;;;;;;10335016;23;20043;-81
2023/01/08 19:50:50;;;;;;;7.95;4.93;;;4.70;99.90;;;;;;10333078;22;20016;-81
2023/01/08 19:54:50;;;;;;;9.52;5.85;;;4.70;99.90;;;;;;10335088;23;20082;-81
2023/01/08 19:58:51;;;;;;;17.58;10.00;;;4.80;99.90;;;;;;10333520;23;20007;-80
2023/01/08 20:02:52;;;;;;;14.32;9.02;;;4.80;99.90;;;;;;10334060;22;20004;-80
2023/01/08 20:06:52;;;;;;;11.93;7.32;;;5.00;99.90;;;;;;10334190;23;20018;-81
2023/01/08 20:10:53;;;;;;;15.68;8.13;;;5.10;99.90;;;;;;10334503;23;20019;-81
2023/01/08 20:14:53;;;;;;;12.23;7.32;;;4.90;99.90;;;;;;10356668;22;20016;-77
2023/01/08 20:18:56;;;;;;;10.07;6.60;;;4.80;99.90;;;;;;10376014;22;19996;-77
2023/01/08 20:22:56;;;;;;;10.20;5.93;;;4.80;99.90;;;;;;10373492;22;20095;-78
2023/01/08 20:26:57;;;;;;;9.95;6.15;;;4.90;99.90;;;;;;10328597;23;20374;-77
2023/01/08 20:31:11;;;;;;;8.82;6.32;;;5.00;99.90;;;;;;10329260;23;20434;-78
2023/01/08 20:35:12;;;;;;;12.52;7.57;;;5.10;99.90;;;;;;10328219;22;20019;-76
2023/01/08 20:39:15;;;;;;;11.27;7.00;;;5.60;99.90;;;;;;10328957;23;20019;-77
2023/01/08 20:43:16;;;;;;;8.43;5.47;;;5.40;99.90;;;;;;10329119;22;20061;-77
2023/01/08 20:47:16;;;;;;;6.80;4.68;;;5.10;99.90;;;;;;10327721;23;20008;-77
2023/01/08 20:51:17;;;;;;;7.13;4.53;;;5.30;99.90;;;;;;10328159;23;20012;-76
2023/01/08 20:55:17;;;;;;;7.60;4.68;;;5.40;99.90;;;;;;10327782;22;20008;-76
2023/01/08 20:59:18;;;;;;;7.43;4.57;;;5.30;99.90;;;;;;10329846;23;20004;-78
2023/01/08 21:03:19;;;;;;;8.23;4.57;;;5.10;99.90;;;;;;10327461;22;20011;-76
2023/01/08 21:07:19;;;;;;;5.32;3.63;;;5.10;99.90;;;;;;10330488;22;20619;-77
2023/01/08 21:11:21;;;;;;;7.75;4.20;;;5.40;99.90;;;;;;10332481;23;20008;-76
2023/01/08 21:15:21;;;;;;;7.38;4.85;;;5.40;99.90;;;;;;10330316;22;20477;-76
2023/01/08 21:19:22;;;;;;;6.85;4.38;;;5.30;99.90;;;;;;10330357;23;20008;-77